sensor_id;sensor_type;location;lat;lon;timestamp;temperature;humidity
3001;DHT22;1510;51.072;6.678;2023-07-02T00:01:53;16.50;83.00
3001;DHT22;1510;51.072;6.678;2023-07-02T00:04:21;16.50;82.90
3001;DHT22;1510;51.072;6.678;2023-07-02T00:06:48;16.50;82.80
3001;DHT22;1510;51.072;6.678;2023-07-02T00:09:16;16.60;82.90
3001;DHT22;1510;51.072;6.678;2023-07-02T00:11:44;16.50;81.70
3001;DHT22;1510;51.072;6.678;2023-07-02T00:14:14;16.50;81.10
3001;DHT22;1510;51.072;6.678;2023-07-02T00:16:43;16.50;80.00
3001;DHT22;1510;51.072;6.678;2023-07-02T00:19:10;16.50;78.10
3001;DHT22;1510;51.072;6.678;2023-07-02T00:21:37;16.60;78.20
3001;DHT22;1510;51.072;6.678;2023-07-02T00:24:05;16.50;76.70
3001;DHT22;1510;51.072;6.678;2023-07-02T00:26:34;16.40;75.90
3001;DHT22;1510;51.072;6.678;2023-07-02T00:29:01;16.40;75.50
3001;DHT22;1510;51.072;6.678;2023-07-02T00:31:30;16.40;74.90
3001;DHT22;1510;51.072;6.678;2023-07-02T00:33:57;16.40;74.90
3001;DHT22;1510;51.072;6.678;2023-07-02T00:36:24;16.30;74.80
3001;DHT22;1510;51.072;6.678;2023-07-02T00:38:51;16.50;75.10
3001;DHT22;1510;51.072;6.678;2023-07-02T00:41:18;16.30;74.80
3001;DHT22;1510;51.072;6.678;2023-07-02T00:43:45;16.30;74.90
3001;DHT22;1510;51.072;6.678;2023-07-02T00:46:15;16.30;74.90
3001;DHT22;1510;51.072;6.678;2023-07-02T00:48:48;16.20;74.70
3001;DHT22;1510;51.072;6.678;2023-07-02T00:51:17;16.20;76.10
3001;DHT22;1510;51.072;6.678;2023-07-02T00:53:44;16.20;76.00
3001;DHT22;1510;51.072;6.678;2023-07-02T00:56:11;16.20;75.50
3001;DHT22;1510;51.072;6.678;2023-07-02T00:58:40;16.10;75.60
3001;DHT22;1510;51.072;6.678;2023-07-02T01:01:12;16.10;74.60
3001;DHT22;1510;51.072;6.678;2023-07-02T01:03:39;16.10;74.60
3001;DHT22;1510;51.072;6.678;2023-07-02T01:06:07;16.10;74.60
3001;DHT22;1510;51.072;6.678;2023-07-02T01:08:34;16.10;74.60
3001;DHT22;1510;51.072;6.678;2023-07-02T01:11:02;16.00;74.50
3001;DHT22;1510;51.072;6.678;2023-07-02T01:13:29;16.10;74.60
3001;DHT22;1510;51.072;6.678;2023-07-02T01:15:56;16.00;74.50
3001;DHT22;1510;51.072;6.678;2023-07-02T01:18:23;16.00;74.60
3001;DHT22;1510;51.072;6.678;2023-07-02T01:20:51;16.00;74.50
3001;DHT22;1510;51.072;6.678;2023-07-02T01:23:20;16.00;74.60
3001;DHT22;1510;51.072;6.678;2023-07-02T01:25:47;15.90;74.40
3001;DHT22;1510;51.072;6.678;2023-07-02T01:28:18;15.90;75.00
3001;DHT22;1510;51.072;6.678;2023-07-02T01:30:48;15.90;74.40
3001;DHT22;1510;51.072;6.678;2023-07-02T01:33:16;15.80;74.30
3001;DHT22;1510;51.072;6.678;2023-07-02T01:35:43;15.80;74.30
3001;DHT22;1510;51.072;6.678;2023-07-02T01:38:15;15.80;74.30
3001;DHT22;1510;51.072;6.678;2023-07-02T01:40:44;15.80;74.30
3001;DHT22;1510;51.072;6.678;2023-07-02T01:43:11;15.80;74.30
3001;DHT22;1510;51.072;6.678;2023-07-02T01:45:41;15.80;74.30
3001;DHT22;1510;51.072;6.678;2023-07-02T01:48:08;15.70;74.20
3001;DHT22;1510;51.072;6.678;2023-07-02T01:50:35;15.70;74.20
3001;DHT22;1510;51.072;6.678;2023-07-02T01:53:03;15.70;74.20
3001;DHT22;1510;51.072;6.678;2023-07-02T01:55:32;15.70;74.20
3001;DHT22;1510;51.072;6.678;2023-07-02T01:57:58;15.70;74.20
3001;DHT22;1510;51.072;6.678;2023-07-02T02:00:27;15.70;74.30
3001;DHT22;1510;51.072;6.678;2023-07-02T02:02:54;15.60;74.10
3001;DHT22;1510;51.072;6.678;2023-07-02T02:05:21;15.60;74.20
3001;DHT22;1510;51.072;6.678;2023-07-02T02:07:48;15.80;74.50
3001;DHT22;1510;51.072;6.678;2023-07-02T02:10:15;15.40;75.00
3001;DHT22;1510;51.072;6.678;2023-07-02T02:12:45;15.40;75.20
3001;DHT22;1510;51.072;6.678;2023-07-02T02:15:12;15.30;75.90
3001;DHT22;1510;51.072;6.678;2023-07-02T02:17:39;15.30;77.00
3001;DHT22;1510;51.072;6.678;2023-07-02T02:20:08;15.10;77.80
3001;DHT22;1510;51.072;6.678;2023-07-02T02:22:39;15.10;78.70
3001;DHT22;1510;51.072;6.678;2023-07-02T02:25:07;15.00;79.00
3001;DHT22;1510;51.072;6.678;2023-07-02T02:27:41;15.00;79.60
3001;DHT22;1510;51.072;6.678;2023-07-02T02:30:12;14.90;79.90
3001;DHT22;1510;51.072;6.678;2023-07-02T02:32:40;14.90;80.50
3001;DHT22;1510;51.072;6.678;2023-07-02T02:35:07;14.90;79.90
3001;DHT22;1510;51.072;6.678;2023-07-02T02:37:37;14.90;80.20
3001;DHT22;1510;51.072;6.678;2023-07-02T02:40:08;14.80;81.20
3001;DHT22;1510;51.072;6.678;2023-07-02T02:42:46;14.80;81.30
3001;DHT22;1510;51.072;6.678;2023-07-02T02:45:15;14.80;81.30
3001;DHT22;1510;51.072;6.678;2023-07-02T02:47:47;14.70;81.20
3001;DHT22;1510;51.072;6.678;2023-07-02T02:50:18;14.70;81.20
3001;DHT22;1510;51.072;6.678;2023-07-02T02:52:45;14.70;81.30
3001;DHT22;1510;51.072;6.678;2023-07-02T02:55:12;14.70;81.30
3001;DHT22;1510;51.072;6.678;2023-07-02T02:57:43;14.70;81.20
3001;DHT22;1510;51.072;6.678;2023-07-02T03:00:11;14.60;81.20
3001;DHT22;1510;51.072;6.678;2023-07-02T03:02:40;14.70;81.20
3001;DHT22;1510;51.072;6.678;2023-07-02T03:05:07;14.70;81.20
3001;DHT22;1510;51.072;6.678;2023-07-02T03:07:37;14.70;81.20
3001;DHT22;1510;51.072;6.678;2023-07-02T03:10:05;14.70;81.30
3001;DHT22;1510;51.072;6.678;2023-07-02T03:12:32;14.70;81.20
3001;DHT22;1510;51.072;6.678;2023-07-02T03:14:59;14.90;81.40
3001;DHT22;1510;51.072;6.678;2023-07-02T03:17:26;14.90;81.40
3001;DHT22;1510;51.072;6.678;2023-07-02T03:19:58;15.00;81.60
3001;DHT22;1510;51.072;6.678;2023-07-02T03:22:25;15.00;81.50
3001;DHT22;1510;51.072;6.678;2023-07-02T03:24:53;15.10;81.60
3001;DHT22;1510;51.072;6.678;2023-07-02T03:27:20;15.10;81.60
3001;DHT22;1510;51.072;6.678;2023-07-02T03:29:52;15.10;81.00
3001;DHT22;1510;51.072;6.678;2023-07-02T03:32:19;15.20;80.60
3001;DHT22;1510;51.072;6.678;2023-07-02T03:34:46;15.10;81.00
3001;DHT22;1510;51.072;6.678;2023-07-02T03:37:14;15.10;81.10
3001;DHT22;1510;51.072;6.678;2023-07-02T03:39:46;15.20;81.30
3001;DHT22;1510;51.072;6.678;2023-07-02T03:44:59;15.20;80.30
3001;DHT22;1510;51.072;6.678;2023-07-02T03:47:26;15.30;80.60
3001;DHT22;1510;51.072;6.678;2023-07-02T03:49:52;15.30;80.40
3001;DHT22;1510;51.072;6.678;2023-07-02T03:52:20;15.30;80.30
3001;DHT22;1510;51.072;6.678;2023-07-02T03:54:47;15.30;80.60
3001;DHT22;1510;51.072;6.678;2023-07-02T03:57:14;15.30;81.60
3001;DHT22;1510;51.072;6.678;2023-07-02T03:59:41;15.30;81.10
3001;DHT22;1510;51.072;6.678;2023-07-02T04:02:07;15.40;80.00
3001;DHT22;1510;51.072;6.678;2023-07-02T04:04:34;15.40;79.30
3001;DHT22;1510;51.072;6.678;2023-07-02T04:07:01;15.50;79.40
3001;DHT22;1510;51.072;6.678;2023-07-02T04:09:29;15.50;79.00
3001;DHT22;1510;51.072;6.678;2023-07-02T04:11:58;15.60;79.40
3001;DHT22;1510;51.072;6.678;2023-07-02T04:14:25;15.60;79.00
3001;DHT22;1510;51.072;6.678;2023-07-02T04:16:51;15.70;78.30
3001;DHT22;1510;51.072;6.678;2023-07-02T04:19:18;15.70;78.20
3001;DHT22;1510;51.072;6.678;2023-07-02T04:21:45;15.70;78.30
3001;DHT22;1510;51.072;6.678;2023-07-02T04:24:12;15.80;77.50
3001;DHT22;1510;51.072;6.678;2023-07-02T04:26:40;15.80;77.80
3001;DHT22;1510;51.072;6.678;2023-07-02T04:29:08;15.80;78.40
3001;DHT22;1510;51.072;6.678;2023-07-02T04:31:35;15.80;78.30
3001;DHT22;1510;51.072;6.678;2023-07-02T04:34:02;15.80;77.90
3001;DHT22;1510;51.072;6.678;2023-07-02T04:36:31;15.80;78.10
3001;DHT22;1510;51.072;6.678;2023-07-02T04:38:58;15.80;77.90
3001;DHT22;1510;51.072;6.678;2023-07-02T04:41:25;15.80;77.30
3001;DHT22;1510;51.072;6.678;2023-07-02T04:43:53;15.90;77.60
3001;DHT22;1510;51.072;6.678;2023-07-02T04:46:20;16.00;77.10
3001;DHT22;1510;51.072;6.678;2023-07-02T04:48:47;16.10;76.60
3001;DHT22;1510;51.072;6.678;2023-07-02T04:51:14;16.20;76.40
3001;DHT22;1510;51.072;6.678;2023-07-02T04:53:41;16.20;76.30
3001;DHT22;1510;51.072;6.678;2023-07-02T04:56:07;16.20;75.10
3001;DHT22;1510;51.072;6.678;2023-07-02T04:58:34;16.20;75.60
3001;DHT22;1510;51.072;6.678;2023-07-02T05:01:02;16.20;76.00
3001;DHT22;1510;51.072;6.678;2023-07-02T05:03:30;16.20;76.00
3001;DHT22;1510;51.072;6.678;2023-07-02T05:05:57;16.20;75.60
3001;DHT22;1510;51.072;6.678;2023-07-02T05:08:23;16.20;75.80
3001;DHT22;1510;51.072;6.678;2023-07-02T05:10:50;16.30;75.90
3001;DHT22;1510;51.072;6.678;2023-07-02T05:13:17;16.40;74.90
3001;DHT22;1510;51.072;6.678;2023-07-02T05:15:44;16.60;76.40
3001;DHT22;1510;51.072;6.678;2023-07-02T05:18:13;16.70;75.20
3001;DHT22;1510;51.072;6.678;2023-07-02T05:20:39;16.80;75.20
3001;DHT22;1510;51.072;6.678;2023-07-02T05:23:06;16.90;72.80
3001;DHT22;1510;51.072;6.678;2023-07-02T05:25:33;17.00;72.50
3001;DHT22;1510;51.072;6.678;2023-07-02T05:28:00;17.10;71.50
3001;DHT22;1510;51.072;6.678;2023-07-02T05:30:26;17.00;71.50
3001;DHT22;1510;51.072;6.678;2023-07-02T05:32:53;17.10;70.60
3001;DHT22;1510;51.072;6.678;2023-07-02T05:35:21;17.20;71.50
3001;DHT22;1510;51.072;6.678;2023-07-02T05:37:48;17.10;71.50
3001;DHT22;1510;51.072;6.678;2023-07-02T05:40:15;17.20;72.20
3001;DHT22;1510;51.072;6.678;2023-07-02T05:42:42;17.40;70.60
3001;DHT22;1510;51.072;6.678;2023-07-02T05:45:10;17.50;70.00
3001;DHT22;1510;51.072;6.678;2023-07-02T05:47:36;18.10;68.40
3001;DHT22;1510;51.072;6.678;2023-07-02T05:50:04;18.30;68.50
3001;DHT22;1510;51.072;6.678;2023-07-02T05:52:32;18.40;65.30
3001;DHT22;1510;51.072;6.678;2023-07-02T05:54:59;18.30;64.60
3001;DHT22;1510;51.072;6.678;2023-07-02T05:57:26;18.40;65.60
3001;DHT22;1510;51.072;6.678;2023-07-02T05:59:53;18.50;64.50
3001;DHT22;1510;51.072;6.678;2023-07-02T06:02:19;18.90;64.10
3001;DHT22;1510;51.072;6.678;2023-07-02T06:04:46;19.20;61.10
3001;DHT22;1510;51.072;6.678;2023-07-02T06:07:13;19.50;61.30
3001;DHT22;1510;51.072;6.678;2023-07-02T06:09:41;19.30;56.40
3001;DHT22;1510;51.072;6.678;2023-07-02T06:12:08;19.00;56.90
3001;DHT22;1510;51.072;6.678;2023-07-02T06:14:35;19.00;59.40
3001;DHT22;1510;51.072;6.678;2023-07-02T06:17:02;18.90;59.80
3001;DHT22;1510;51.072;6.678;2023-07-02T06:19:31;18.90;60.60
3001;DHT22;1510;51.072;6.678;2023-07-02T06:21:58;19.30;58.00
3001;DHT22;1510;51.072;6.678;2023-07-02T06:24:24;19.20;59.00
3001;DHT22;1510;51.072;6.678;2023-07-02T06:26:52;19.10;57.60
3001;DHT22;1510;51.072;6.678;2023-07-02T06:29:19;19.10;58.20
3001;DHT22;1510;51.072;6.678;2023-07-02T06:31:46;19.20;59.50
3001;DHT22;1510;51.072;6.678;2023-07-02T06:34:13;19.70;58.30
3001;DHT22;1510;51.072;6.678;2023-07-02T06:36:40;19.50;54.80
3001;DHT22;1510;51.072;6.678;2023-07-02T06:39:07;19.50;52.70
3001;DHT22;1510;51.072;6.678;2023-07-02T06:41:34;19.80;55.40
3001;DHT22;1510;51.072;6.678;2023-07-02T06:44:03;19.90;53.10
3001;DHT22;1510;51.072;6.678;2023-07-02T06:46:30;20.00;53.20
3001;DHT22;1510;51.072;6.678;2023-07-02T06:48:56;20.10;53.30
3001;DHT22;1510;51.072;6.678;2023-07-02T06:51:24;20.10;49.70
3001;DHT22;1510;51.072;6.678;2023-07-02T06:53:52;20.00;50.00
3001;DHT22;1510;51.072;6.678;2023-07-02T06:56:19;19.70;46.50
3001;DHT22;1510;51.072;6.678;2023-07-02T06:58:45;19.70;47.60
3001;DHT22;1510;51.072;6.678;2023-07-02T07:01:14;19.40;48.20
3001;DHT22;1510;51.072;6.678;2023-07-02T07:03:40;19.50;48.00
3001;DHT22;1510;51.072;6.678;2023-07-02T07:06:07;19.70;48.00
3001;DHT22;1510;51.072;6.678;2023-07-02T07:08:37;19.90;47.50
3001;DHT22;1510;51.072;6.678;2023-07-02T07:11:04;20.10;44.50
3001;DHT22;1510;51.072;6.678;2023-07-02T07:13:31;20.40;42.90
3001;DHT22;1510;51.072;6.678;2023-07-02T07:15:58;20.60;44.90
3001;DHT22;1510;51.072;6.678;2023-07-02T07:18:26;20.30;44.60
3001;DHT22;1510;51.072;6.678;2023-07-02T07:20:52;20.80;45.20
3001;DHT22;1510;51.072;6.678;2023-07-02T07:23:19;20.90;38.20
3001;DHT22;1510;51.072;6.678;2023-07-02T07:25:46;21.10;37.70
3001;DHT22;1510;51.072;6.678;2023-07-02T07:28:13;21.40;36.60
3001;DHT22;1510;51.072;6.678;2023-07-02T07:30:41;21.50;36.70
3001;DHT22;1510;51.072;6.678;2023-07-02T07:33:08;21.40;36.60
3001;DHT22;1510;51.072;6.678;2023-07-02T07:35:36;21.60;36.80
3001;DHT22;1510;51.072;6.678;2023-07-02T07:38:03;21.60;36.30
3001;DHT22;1510;51.072;6.678;2023-07-02T07:40:30;22.10;37.30
3001;DHT22;1510;51.072;6.678;2023-07-02T07:42:57;21.70;34.20
3001;DHT22;1510;51.072;6.678;2023-07-02T07:45:23;21.70;36.80
3001;DHT22;1510;51.072;6.678;2023-07-02T07:47:50;21.90;33.10
3001;DHT22;1510;51.072;6.678;2023-07-02T07:50:17;21.50;33.40
3001;DHT22;1510;51.072;6.678;2023-07-02T07:52:45;21.40;36.60
3001;DHT22;1510;51.072;6.678;2023-07-02T07:55:12;21.40;36.60
3001;DHT22;1510;51.072;6.678;2023-07-02T07:57:39;21.60;31.20
3001;DHT22;1510;51.072;6.678;2023-07-02T08:00:06;21.50;33.20
3001;DHT22;1510;51.072;6.678;2023-07-02T08:02:35;21.40;31.90
3001;DHT22;1510;51.072;6.678;2023-07-02T08:05:01;21.20;34.10
3001;DHT22;1510;51.072;6.678;2023-07-02T08:07:30;21.10;31.90
3001;DHT22;1510;51.072;6.678;2023-07-02T08:09:59;21.10;28.30
3001;DHT22;1510;51.072;6.678;2023-07-02T08:12:27;20.90;32.10
3001;DHT22;1510;51.072;6.678;2023-07-02T08:14:55;20.90;30.00
3001;DHT22;1510;51.072;6.678;2023-07-02T08:17:21;21.40;32.10
3001;DHT22;1510;51.072;6.678;2023-07-02T08:19:48;21.70;26.50
3001;DHT22;1510;51.072;6.678;2023-07-02T08:22:15;21.60;26.60
3001;DHT22;1510;51.072;6.678;2023-07-02T08:24:42;21.80;28.30
3001;DHT22;1510;51.072;6.678;2023-07-02T08:27:10;21.50;26.90
3001;DHT22;1510;51.072;6.678;2023-07-02T08:29:39;21.80;25.90
3001;DHT22;1510;51.072;6.678;2023-07-02T08:32:07;21.40;26.30
3001;DHT22;1510;51.072;6.678;2023-07-02T08:34:33;22.10;28.50
3001;DHT22;1510;51.072;6.678;2023-07-02T08:37:00;22.30;26.20
3001;DHT22;1510;51.072;6.678;2023-07-02T08:39:27;22.20;23.70
3001;DHT22;1510;51.072;6.678;2023-07-02T08:41:54;22.70;24.70
3001;DHT22;1510;51.072;6.678;2023-07-02T08:44:22;22.30;24.50
3001;DHT22;1510;51.072;6.678;2023-07-02T08:46:52;22.30;27.30
3001;DHT22;1510;51.072;6.678;2023-07-02T08:49:22;22.00;27.40
3001;DHT22;1510;51.072;6.678;2023-07-02T08:51:49;22.10;28.50
3001;DHT22;1510;51.072;6.678;2023-07-02T08:54:17;22.10;28.50
3001;DHT22;1510;51.072;6.678;2023-07-02T08:56:44;22.10;28.50
3001;DHT22;1510;51.072;6.678;2023-07-02T08:59:11;21.90;28.40
3001;DHT22;1510;51.072;6.678;2023-07-02T09:01:49;21.30;28.00
3001;DHT22;1510;51.072;6.678;2023-07-02T09:04:17;21.00;27.70
3001;DHT22;1510;51.072;6.678;2023-07-02T09:06:44;21.00;27.80
3001;DHT22;1510;51.072;6.678;2023-07-02T09:09:11;21.00;29.20
3001;DHT22;1510;51.072;6.678;2023-07-02T09:11:47;20.70;29.10
3001;DHT22;1510;51.072;6.678;2023-07-02T09:14:24;20.70;29.90
3001;DHT22;1510;51.072;6.678;2023-07-02T09:17:03;21.00;31.20
3001;DHT22;1510;51.072;6.678;2023-07-02T09:19:31;21.20;30.00
3001;DHT22;1510;51.072;6.678;2023-07-02T09:21:58;21.70;31.60
3001;DHT22;1510;51.072;6.678;2023-07-02T09:24:27;21.60;28.10
3001;DHT22;1510;51.072;6.678;2023-07-02T09:26:56;21.50;28.10
3001;DHT22;1510;51.072;6.678;2023-07-02T09:29:25;21.50;28.10
3001;DHT22;1510;51.072;6.678;2023-07-02T09:31:54;21.30;29.10
3001;DHT22;1510;51.072;6.678;2023-07-02T09:34:28;21.00;27.90
3001;DHT22;1510;51.072;6.678;2023-07-02T09:36:56;20.40;30.80
3001;DHT22;1510;51.072;6.678;2023-07-02T09:39:26;20.40;31.40
3001;DHT22;1510;51.072;6.678;2023-07-02T09:41:54;20.40;30.20
3001;DHT22;1510;51.072;6.678;2023-07-02T09:44:22;20.70;32.30
3001;DHT22;1510;51.072;6.678;2023-07-02T09:46:55;20.90;30.70
3001;DHT22;1510;51.072;6.678;2023-07-02T09:49:22;20.90;30.80
3001;DHT22;1510;51.072;6.678;2023-07-02T09:51:52;21.20;32.60
3001;DHT22;1510;51.072;6.678;2023-07-02T09:54:19;21.40;30.20
3001;DHT22;1510;51.072;6.678;2023-07-02T09:56:46;22.30;31.50
3001;DHT22;1510;51.072;6.678;2023-07-02T09:59:13;22.50;25.60
3001;DHT22;1510;51.072;6.678;2023-07-02T10:01:40;22.70;27.00
3001;DHT22;1510;51.072;6.678;2023-07-02T10:04:14;23.00;26.80
3001;DHT22;1510;51.072;6.678;2023-07-02T10:06:45;22.80;24.90
3001;DHT22;1510;51.072;6.678;2023-07-02T10:09:14;22.10;25.40
3001;DHT22;1510;51.072;6.678;2023-07-02T10:11:40;22.20;27.40
3001;DHT22;1510;51.072;6.678;2023-07-02T10:14:07;22.90;25.00
3001;DHT22;1510;51.072;6.678;2023-07-02T10:16:34;22.80;21.70
3001;DHT22;1510;51.072;6.678;2023-07-02T10:19:10;22.80;22.50
3001;DHT22;1510;51.072;6.678;2023-07-02T10:21:37;22.40;23.20
3001;DHT22;1510;51.072;6.678;2023-07-02T10:24:11;22.20;23.50
3001;DHT22;1510;51.072;6.678;2023-07-02T10:26:51;23.30;25.80
3001;DHT22;1510;51.072;6.678;2023-07-02T10:29:19;24.10;23.40
3001;DHT22;1510;51.072;6.678;2023-07-02T10:31:50;23.40;22.20
3001;DHT22;1510;51.072;6.678;2023-07-02T10:34:31;22.90;21.80
3001;DHT22;1510;51.072;6.678;2023-07-02T10:37:00;22.60;21.60
3001;DHT22;1510;51.072;6.678;2023-07-02T10:39:28;21.90;22.80
3001;DHT22;1510;51.072;6.678;2023-07-02T10:42:07;21.30;24.10
3001;DHT22;1510;51.072;6.678;2023-07-02T10:44:35;21.20;27.90
3001;DHT22;1510;51.072;6.678;2023-07-02T10:47:12;21.10;27.80
3001;DHT22;1510;51.072;6.678;2023-07-02T10:49:39;20.80;27.60
3001;DHT22;1510;51.072;6.678;2023-07-02T10:52:07;20.50;27.40
3001;DHT22;1510;51.072;6.678;2023-07-02T10:54:41;20.20;27.10
3001;DHT22;1510;51.072;6.678;2023-07-02T10:57:10;20.50;25.90
3001;DHT22;1510;51.072;6.678;2023-07-02T10:59:37;20.60;27.40
3001;DHT22;1510;51.072;6.678;2023-07-02T11:02:05;20.40;27.30
3001;DHT22;1510;51.072;6.678;2023-07-02T11:04:33;20.20;27.60
3001;DHT22;1510;51.072;6.678;2023-07-02T11:07:00;20.00;28.60
3001;DHT22;1510;51.072;6.678;2023-07-02T11:09:27;20.10;29.70
3001;DHT22;1510;51.072;6.678;2023-07-02T11:11:55;19.90;28.80
3001;DHT22;1510;51.072;6.678;2023-07-02T11:14:33;19.60;30.70
3001;DHT22;1510;51.072;6.678;2023-07-02T11:17:03;19.40;34.70
3001;DHT22;1510;51.072;6.678;2023-07-02T11:19:31;19.30;32.80
3001;DHT22;1510;51.072;6.678;2023-07-02T11:21:59;19.40;31.20
3001;DHT22;1510;51.072;6.678;2023-07-02T11:24:28;19.50;27.70
3001;DHT22;1510;51.072;6.678;2023-07-02T11:26:55;19.90;25.10
3001;DHT22;1510;51.072;6.678;2023-07-02T11:29:22;20.40;23.70
3001;DHT22;1510;51.072;6.678;2023-07-02T11:31:50;21.40;22.70
3001;DHT22;1510;51.072;6.678;2023-07-02T11:34:19;22.50;21.40
3001;DHT22;1510;51.072;6.678;2023-07-02T11:36:46;23.60;20.00
3001;DHT22;1510;51.072;6.678;2023-07-02T11:39:13;24.60;14.60
3001;DHT22;1510;51.072;6.678;2023-07-02T11:41:45;25.50;5.70
3001;DHT22;1510;51.072;6.678;2023-07-02T11:44:12;26.10;3.50
3001;DHT22;1510;51.072;6.678;2023-07-02T11:46:39;26.60;1.10
3001;DHT22;1510;51.072;6.678;2023-07-02T11:49:07;26.60;1.00
3001;DHT22;1510;51.072;6.678;2023-07-02T11:51:35;25.30;1.00
3001;DHT22;1510;51.072;6.678;2023-07-02T11:54:02;24.40;1.00
3001;DHT22;1510;51.072;6.678;2023-07-02T11:56:29;24.10;1.00
3001;DHT22;1510;51.072;6.678;2023-07-02T11:58:56;25.00;1.00
3001;DHT22;1510;51.072;6.678;2023-07-02T12:01:23;25.80;1.00
3001;DHT22;1510;51.072;6.678;2023-07-02T12:03:49;26.70;1.00
3001;DHT22;1510;51.072;6.678;2023-07-02T12:06:18;27.00;1.00
3001;DHT22;1510;51.072;6.678;2023-07-02T12:08:44;26.50;1.00
3001;DHT22;1510;51.072;6.678;2023-07-02T12:11:11;25.50;1.00
3001;DHT22;1510;51.072;6.678;2023-07-02T12:13:38;25.20;1.00
3001;DHT22;1510;51.072;6.678;2023-07-02T12:16:05;25.50;1.00
3001;DHT22;1510;51.072;6.678;2023-07-02T12:18:31;25.60;1.00
3001;DHT22;1510;51.072;6.678;2023-07-02T12:20:58;26.10;1.00
3001;DHT22;1510;51.072;6.678;2023-07-02T12:23:26;26.70;1.00
3001;DHT22;1510;51.072;6.678;2023-07-02T12:25:53;26.00;1.00
3001;DHT22;1510;51.072;6.678;2023-07-02T12:28:20;25.70;1.00
3001;DHT22;1510;51.072;6.678;2023-07-02T12:30:47;25.50;1.00
3001;DHT22;1510;51.072;6.678;2023-07-02T12:33:14;25.60;1.00
3001;DHT22;1510;51.072;6.678;2023-07-02T12:35:40;25.80;1.00
3001;DHT22;1510;51.072;6.678;2023-07-02T12:38:07;25.70;1.00
3001;DHT22;1510;51.072;6.678;2023-07-02T12:40:35;25.80;1.00
3001;DHT22;1510;51.072;6.678;2023-07-02T12:43:02;25.80;1.00
3001;DHT22;1510;51.072;6.678;2023-07-02T12:45:29;25.40;1.00
3001;DHT22;1510;51.072;6.678;2023-07-02T12:47:57;25.30;1.00
3001;DHT22;1510;51.072;6.678;2023-07-02T12:50:24;25.30;1.00
3001;DHT22;1510;51.072;6.678;2023-07-02T12:52:51;25.40;1.00
3001;DHT22;1510;51.072;6.678;2023-07-02T12:55:17;25.40;1.00
3001;DHT22;1510;51.072;6.678;2023-07-02T12:57:46;26.30;1.00
3001;DHT22;1510;51.072;6.678;2023-07-02T13:00:13;26.60;1.00
3001;DHT22;1510;51.072;6.678;2023-07-02T13:02:40;26.80;1.00
3001;DHT22;1510;51.072;6.678;2023-07-02T13:05:07;27.00;1.00
3001;DHT22;1510;51.072;6.678;2023-07-02T13:07:33;26.30;1.00
3001;DHT22;1510;51.072;6.678;2023-07-02T13:10:00;26.60;1.00
3001;DHT22;1510;51.072;6.678;2023-07-02T13:12:27;27.20;1.00
3001;DHT22;1510;51.072;6.678;2023-07-02T13:14:55;27.00;1.00
3001;DHT22;1510;51.072;6.678;2023-07-02T13:17:22;27.30;1.00
3001;DHT22;1510;51.072;6.678;2023-07-02T13:19:49;27.10;1.00
3001;DHT22;1510;51.072;6.678;2023-07-02T13:22:15;26.70;1.00
3001;DHT22;1510;51.072;6.678;2023-07-02T13:24:42;26.60;1.00
3001;DHT22;1510;51.072;6.678;2023-07-02T13:27:13;26.50;1.00
3001;DHT22;1510;51.072;6.678;2023-07-02T13:29:41;25.60;1.00
3001;DHT22;1510;51.072;6.678;2023-07-02T13:32:10;25.20;1.00
3001;DHT22;1510;51.072;6.678;2023-07-02T13:34:37;24.40;1.00
3001;DHT22;1510;51.072;6.678;2023-07-02T13:37:04;24.80;1.00
3001;DHT22;1510;51.072;6.678;2023-07-02T13:39:31;24.90;1.00
3001;DHT22;1510;51.072;6.678;2023-07-02T13:41:58;24.90;1.00
3001;DHT22;1510;51.072;6.678;2023-07-02T13:44:25;24.90;1.00
3001;DHT22;1510;51.072;6.678;2023-07-02T13:46:51;25.60;1.00
3001;DHT22;1510;51.072;6.678;2023-07-02T13:49:20;26.80;1.00
3001;DHT22;1510;51.072;6.678;2023-07-02T13:51:47;27.80;1.00
3001;DHT22;1510;51.072;6.678;2023-07-02T13:54:16;28.60;1.00
3001;DHT22;1510;51.072;6.678;2023-07-02T13:56:44;28.20;1.00
3001;DHT22;1510;51.072;6.678;2023-07-02T13:59:16;27.90;1.00
3001;DHT22;1510;51.072;6.678;2023-07-02T14:01:44;28.50;1.00
3001;DHT22;1510;51.072;6.678;2023-07-02T14:04:12;28.70;1.00
3001;DHT22;1510;51.072;6.678;2023-07-02T14:06:38;27.80;1.00
3001;DHT22;1510;51.072;6.678;2023-07-02T14:09:05;27.60;1.00
3001;DHT22;1510;51.072;6.678;2023-07-02T14:11:34;26.90;1.00
3001;DHT22;1510;51.072;6.678;2023-07-02T14:14:02;26.40;1.00
3001;DHT22;1510;51.072;6.678;2023-07-02T14:16:30;27.50;1.00
3001;DHT22;1510;51.072;6.678;2023-07-02T14:18:57;26.70;1.00
3001;DHT22;1510;51.072;6.678;2023-07-02T14:21:24;27.00;1.00
3001;DHT22;1510;51.072;6.678;2023-07-02T14:23:50;26.10;1.00
3001;DHT22;1510;51.072;6.678;2023-07-02T14:26:17;25.30;1.00
3001;DHT22;1510;51.072;6.678;2023-07-02T14:28:44;24.90;1.00
3001;DHT22;1510;51.072;6.678;2023-07-02T14:31:11;24.70;1.00
3001;DHT22;1510;51.072;6.678;2023-07-02T14:33:39;25.10;1.00
3001;DHT22;1510;51.072;6.678;2023-07-02T14:36:06;26.30;1.00
3001;DHT22;1510;51.072;6.678;2023-07-02T14:38:34;26.80;1.00
3001;DHT22;1510;51.072;6.678;2023-07-02T14:41:01;27.20;1.00
3001;DHT22;1510;51.072;6.678;2023-07-02T14:43:29;27.40;1.00
3001;DHT22;1510;51.072;6.678;2023-07-02T14:45:58;26.60;1.00
3001;DHT22;1510;51.072;6.678;2023-07-02T14:48:26;26.10;1.00
3001;DHT22;1510;51.072;6.678;2023-07-02T14:50:55;25.90;1.00
3001;DHT22;1510;51.072;6.678;2023-07-02T14:53:23;24.70;1.00
3001;DHT22;1510;51.072;6.678;2023-07-02T14:55:52;24.30;1.00
3001;DHT22;1510;51.072;6.678;2023-07-02T14:58:20;24.30;1.00
3001;DHT22;1510;51.072;6.678;2023-07-02T15:00:48;24.70;1.00
3001;DHT22;1510;51.072;6.678;2023-07-02T15:03:16;25.80;1.00
3001;DHT22;1510;51.072;6.678;2023-07-02T15:05:45;26.40;1.00
3001;DHT22;1510;51.072;6.678;2023-07-02T15:08:14;26.00;1.00
3001;DHT22;1510;51.072;6.678;2023-07-02T15:10:42;26.10;1.00
3001;DHT22;1510;51.072;6.678;2023-07-02T15:13:09;26.30;1.00
3001;DHT22;1510;51.072;6.678;2023-07-02T15:15:37;26.10;1.00
3001;DHT22;1510;51.072;6.678;2023-07-02T15:18:05;25.90;1.00
3001;DHT22;1510;51.072;6.678;2023-07-02T15:20:32;26.40;1.00
3001;DHT22;1510;51.072;6.678;2023-07-02T15:22:59;27.00;1.00
3001;DHT22;1510;51.072;6.678;2023-07-02T15:25:30;27.20;1.00
3001;DHT22;1510;51.072;6.678;2023-07-02T15:27:57;26.50;1.00
3001;DHT22;1510;51.072;6.678;2023-07-02T15:30:24;25.70;1.00
3001;DHT22;1510;51.072;6.678;2023-07-02T15:32:51;25.40;1.00
3001;DHT22;1510;51.072;6.678;2023-07-02T15:35:17;25.30;1.00
3001;DHT22;1510;51.072;6.678;2023-07-02T15:37:44;24.70;1.00
3001;DHT22;1510;51.072;6.678;2023-07-02T15:40:11;24.30;1.00
3001;DHT22;1510;51.072;6.678;2023-07-02T15:42:39;24.70;1.00
3001;DHT22;1510;51.072;6.678;2023-07-02T15:45:07;25.10;1.00
3001;DHT22;1510;51.072;6.678;2023-07-02T15:47:35;25.20;1.00
3001;DHT22;1510;51.072;6.678;2023-07-02T15:50:03;24.90;1.00
3001;DHT22;1510;51.072;6.678;2023-07-02T15:52:30;24.70;1.00
3001;DHT22;1510;51.072;6.678;2023-07-02T15:54:57;25.20;1.00
3001;DHT22;1510;51.072;6.678;2023-07-02T15:57:23;25.50;1.00
3001;DHT22;1510;51.072;6.678;2023-07-02T15:59:52;25.10;1.00
3001;DHT22;1510;51.072;6.678;2023-07-02T16:02:20;25.20;1.00
3001;DHT22;1510;51.072;6.678;2023-07-02T16:04:47;25.10;1.00
3001;DHT22;1510;51.072;6.678;2023-07-02T16:07:14;25.90;1.00
3001;DHT22;1510;51.072;6.678;2023-07-02T16:09:41;26.00;1.00
3001;DHT22;1510;51.072;6.678;2023-07-02T16:12:08;25.70;1.00
3001;DHT22;1510;51.072;6.678;2023-07-02T16:14:36;25.80;1.00